Time;durP1;ratioP1;P1;durP2;ratioP2;P2;SDS_P1;SDS_P2;PMS_P1;PMS_P2;Temp;Humidity;BMP_temperature;BMP_pressure;BME280_temperature;BME280_humidity;BME280_pressure;Samples;Min_cycle;Max_cycle;Signal;HPM_P1;HPM_P2
2023/03/02 00:01:40;;;;;;;22.73;15.43;;;3.30;99.90;;;;;;5096350;28;20224;-70
2023/03/02 00:04:12;;;;;;;23.20;15.30;;;3.30;99.90;;;;;;5095642;28;20205;-69
2023/03/02 00:06:39;;;;;;;26.47;17.40;;;3.30;99.90;;;;;;5095586;28;20264;-70
2023/03/02 00:09:06;;;;;;;26.73;18.10;;;3.20;99.90;;;;;;5095107;28;20243;-69
2023/03/02 00:11:35;;;;;;;27.63;17.70;;;3.20;99.90;;;;;;5095026;28;20204;-71
2023/03/02 00:14:02;;;;;;;28.03;18.07;;;3.20;99.90;;;;;;5096136;28;20219;-70
2023/03/02 00:16:29;;;;;;;21.87;15.87;;;3.20;99.90;;;;;;5095551;28;20204;-70
2023/03/02 00:18:56;;;;;;;27.70;18.63;;;3.10;99.90;;;;;;5096133;28;20204;-70
2023/03/02 00:21:24;;;;;;;30.23;18.33;;;3.10;99.90;;;;;;5097510;28;20651;-70
2023/03/02 00:23:51;;;;;;;30.10;19.20;;;3.10;99.90;;;;;;5100937;28;20204;-70
2023/03/02 00:26:18;;;;;;;28.57;18.53;;;3.10;99.90;;;;;;5095168;28;20310;-70
2023/03/02 00:28:45;;;;;;;23.90;17.00;;;3.10;99.90;;;;;;5095388;28;20231;-70
2023/03/02 00:31:12;;;;;;;25.53;16.50;;;3.10;99.90;;;;;;5095387;28;20298;-70
2023/03/02 00:33:39;;;;;;;25.80;16.60;;;3.00;99.90;;;;;;5095182;28;20220;-70
2023/03/02 00:36:06;;;;;;;24.97;16.60;;;3.00;99.90;;;;;;5095670;28;20223;-71
2023/03/02 00:38:34;;;;;;;26.33;16.97;;;3.00;99.90;;;;;;5095182;28;20215;-70
2023/03/02 00:41:01;;;;;;;23.47;16.33;;;3.00;99.90;;;;;;5095612;28;20233;-70
2023/03/02 00:43:28;;;;;;;25.13;16.77;;;2.90;99.90;;;;;;5095256;28;20228;-71
2023/03/02 00:45:55;;;;;;;24.47;16.03;;;2.90;99.90;;;;;;5095282;28;20207;-70
2023/03/02 00:48:22;;;;;;;25.50;17.33;;;2.90;99.90;;;;;;5095898;28;20229;-69
2023/03/02 00:50:49;;;;;;;24.13;16.60;;;2.80;99.90;;;;;;5099616;28;20231;-70
2023/03/02 00:53:16;;;;;;;25.60;16.93;;;2.80;99.90;;;;;;5109742;28;20232;-70
2023/03/02 00:55:53;;;;;;;24.90;16.37;;;2.80;99.90;;;;;;5111210;28;20215;-70
2023/03/02 00:58:21;;;;;;;23.93;16.53;;;2.70;99.90;;;;;;5109781;28;20212;-70
2023/03/02 01:00:48;;;;;;;26.60;16.40;;;2.70;99.90;;;;;;5104043;28;20203;-70
2023/03/02 01:03:14;;;;;;;25.63;16.37;;;2.60;99.90;;;;;;5109442;28;20230;-70
2023/03/02 01:05:42;;;;;;;25.07;16.67;;;2.70;99.90;;;;;;5111534;28;20208;-69
2023/03/02 01:08:08;;;;;;;27.07;17.73;;;2.60;99.90;;;;;;5107154;28;20204;-71
2023/03/02 01:10:36;;;;;;;23.33;16.03;;;2.60;99.90;;;;;;5098192;28;20215;-70
2023/03/02 01:13:05;;;;;;;25.23;16.03;;;2.60;99.90;;;;;;5097173;28;20233;-70
2023/03/02 01:15:32;;;;;;;21.67;15.33;;;2.60;99.90;;;;;;5096972;28;20208;-70
2023/03/02 01:17:59;;;;;;;25.67;16.77;;;2.50;99.90;;;;;;5097048;28;20322;-70
2023/03/02 01:20:27;;;;;;;25.00;16.10;;;2.50;99.90;;;;;;5097321;28;20196;-70
2023/03/02 01:22:54;;;;;;;24.93;16.40;;;2.50;99.90;;;;;;5097166;28;20399;-71
2023/03/02 01:25:20;;;;;;;23.33;15.97;;;2.40;99.90;;;;;;5097350;28;20208;-70
2023/03/02 01:27:47;;;;;;;24.50;16.77;;;2.40;99.90;;;;;;5098819;28;20212;-70
2023/03/02 01:30:16;;;;;;;23.07;15.80;;;2.40;99.90;;;;;;5100685;28;20228;-69
2023/03/02 01:32:43;;;;;;;21.23;16.10;;;2.30;99.90;;;;;;5102712;28;20258;-71
2023/03/02 01:35:10;;;;;;;24.63;16.20;;;2.30;99.90;;;;;;5100458;28;20200;-70
2023/03/02 01:37:37;;;;;;;23.37;15.13;;;2.30;99.90;;;;;;5099655;28;20204;-70
2023/03/02 01:40:05;;;;;;;22.37;15.43;;;2.30;99.90;;;;;;5104108;28;20204;-71
2023/03/02 01:42:35;;;;;;;22.07;15.10;;;2.30;99.90;;;;;;5106964;28;20224;-71
2023/03/02 01:45:01;;;;;;;23.33;16.17;;;2.30;99.90;;;;;;5108208;28;20210;-70
2023/03/02 01:47:35;;;;;;;22.10;14.77;;;2.30;99.90;;;;;;5113113;28;20208;-72
2023/03/02 01:50:06;;;;;;;21.70;15.50;;;2.20;99.90;;;;;;5113472;28;20250;-71
2023/03/02 01:52:37;;;;;;;26.40;16.20;;;2.20;99.90;;;;;;5113854;28;20259;-71
2023/03/02 01:55:10;;;;;;;22.37;16.07;;;2.20;99.90;;;;;;5115837;28;20269;-71
2023/03/02 01:57:42;;;;;;;23.00;16.10;;;2.20;99.90;;;;;;5115988;28;20242;-72
2023/03/02 02:00:13;;;;;;;23.37;15.97;;;2.20;99.90;;;;;;5113304;28;20208;-70
2023/03/02 02:02:42;;;;;;;29.77;18.17;;;2.20;99.90;;;;;;5098473;28;20314;-70
2023/03/02 02:05:10;;;;;;;26.87;18.20;;;2.20;99.90;;;;;;5098114;28;20200;-70
2023/03/02 02:07:38;;;;;;;29.47;18.63;;;2.20;99.90;;;;;;5097210;28;20205;-70
2023/03/02 02:10:06;;;;;;;27.33;18.10;;;2.20;99.90;;;;;;5097833;28;20231;-70
2023/03/02 02:12:34;;;;;;;26.97;18.60;;;2.10;99.90;;;;;;5097021;28;20259;-70
2023/03/02 02:15:01;;;;;;;27.63;16.93;;;2.10;99.90;;;;;;5097824;28;20207;-70
2023/03/02 02:17:29;;;;;;;25.33;17.10;;;2.00;99.90;;;;;;5097294;28;20215;-71
2023/03/02 02:20:06;;;;;;;26.83;16.33;;;2.10;99.90;;;;;;5097175;28;20207;-71
2023/03/02 02:22:48;;;;;;;22.77;15.73;;;2.10;99.90;;;;;;5097206;28;20227;-70
2023/03/02 02:25:26;;;;;;;22.37;15.97;;;2.00;99.90;;;;;;5097971;28;20208;-71
2023/03/02 02:27:56;;;;;;;25.00;14.57;;;2.00;99.90;;;;;;5096840;28;20230;-70
2023/03/02 02:30:25;;;;;;;21.77;14.87;;;2.00;99.90;;;;;;5096569;28;20236;-70
2023/03/02 02:32:54;;;;;;;23.70;15.17;;;2.00;99.90;;;;;;5095882;28;20269;-70
2023/03/02 02:35:26;;;;;;;22.93;16.10;;;2.00;99.90;;;;;;5096056;28;20266;-71
2023/03/02 02:37:56;;;;;;;23.07;15.83;;;2.00;99.90;;;;;;5094220;28;20208;-70
2023/03/02 02:40:44;;;;;;;23.70;15.17;;;2.00;99.90;;;;;;5094341;28;20203;-67
2023/03/02 02:43:16;;;;;;;19.43;14.27;;;1.90;99.90;;;;;;5094393;28;20220;-67
2023/03/02 02:45:43;;;;;;;23.40;16.10;;;1.90;99.90;;;;;;5095191;28;20196;-67
2023/03/02 02:48:15;;;;;;;24.97;16.73;;;1.90;99.90;;;;;;5094015;28;20231;-63
2023/03/02 02:50:42;;;;;;;24.30;16.33;;;1.90;99.90;;;;;;5096416;28;20255;-64
2023/03/02 02:53:14;;;;;;;23.07;16.33;;;1.90;99.90;;;;;;5099256;28;20232;-66
2023/03/02 02:55:42;;;;;;;25.43;16.90;;;1.80;99.90;;;;;;5107349;28;20228;-65
2023/03/02 02:58:23;;;;;;;23.23;16.20;;;1.80;99.90;;;;;;5106027;28;20208;-69
2023/03/02 03:00:50;;;;;;;23.50;16.17;;;1.80;99.90;;;;;;5104844;28;20219;-66
2023/03/02 03:03:29;;;;;;;22.07;16.40;;;1.80;99.90;;;;;;5104696;28;20228;-70
2023/03/02 03:05:57;;;;;;;24.87;15.43;;;1.80;99.90;;;;;;5105902;28;20204;-67
2023/03/02 03:09:00;;;;;;;24.33;16.53;;;1.70;99.90;;;;;;5106198;28;20208;-66
2023/03/02 03:11:29;;;;;;;24.97;17.20;;;1.70;99.90;;;;;;5105592;28;20200;-66
2023/03/02 03:14:04;;;;;;;25.97;16.73;;;1.60;99.90;;;;;;5104387;28;20204;-67
2023/03/02 03:16:32;;;;;;;23.60;16.23;;;1.60;99.90;;;;;;5100748;28;20208;-67
2023/03/02 03:19:05;;;;;;;25.73;16.47;;;1.70;99.90;;;;;;5098752;28;20204;-67
2023/03/02 03:21:31;;;;;;;25.17;16.80;;;1.60;99.90;;;;;;5100348;28;20264;-65
2023/03/02 03:23:58;;;;;;;22.30;16.00;;;1.60;99.90;;;;;;5104790;28;20210;-66
2023/03/02 03:26:25;;;;;;;24.03;16.27;;;1.60;99.90;;;;;;5104857;28;20208;-67
2023/03/02 03:28:52;;;;;;;23.00;15.80;;;1.60;99.90;;;;;;5104567;28;20215;-65
2023/03/02 03:31:20;;;;;;;22.47;16.30;;;1.60;99.90;;;;;;5106522;28;20211;-66
2023/03/02 03:33:48;;;;;;;23.03;15.30;;;1.60;99.90;;;;;;5105960;28;20215;-67
2023/03/02 03:36:16;;;;;;;24.73;16.33;;;1.60;99.90;;;;;;5105885;28;20208;-66
2023/03/02 03:38:43;;;;;;;25.20;16.27;;;1.60;99.90;;;;;;5103803;28;20243;-67
2023/03/02 03:41:10;;;;;;;24.50;16.43;;;1.60;99.90;;;;;;5102489;28;20236;-65
2023/03/02 03:43:37;;;;;;;25.07;15.63;;;1.60;99.90;;;;;;5102507;28;20261;-66
2023/03/02 03:46:04;;;;;;;26.87;16.23;;;1.60;99.90;;;;;;5099774;28;20208;-66
2023/03/02 03:48:32;;;;;;;25.43;16.40;;;1.60;99.90;;;;;;5095914;28;20204;-66
2023/03/02 03:50:59;;;;;;;24.20;16.27;;;1.60;99.90;;;;;;5095462;28;20228;-67
2023/03/02 03:53:26;;;;;;;24.03;15.43;;;1.60;99.90;;;;;;5095940;28;20235;-67
2023/03/02 03:55:55;;;;;;;23.93;16.57;;;1.60;99.90;;;;;;5100439;28;20244;-68
2023/03/02 03:58:22;;;;;;;27.30;17.73;;;1.50;99.90;;;;;;5094736;28;20616;-67
2023/03/02 04:00:49;;;;;;;42.40;26.73;;;1.50;99.90;;;;;;5096098;28;20200;-66
2023/03/02 04:03:16;;;;;;;37.53;24.50;;;1.50;99.90;;;;;;5098203;28;20228;-68
2023/03/02 04:05:44;;;;;;;25.20;16.93;;;1.50;99.90;;;;;;5104124;28;20211;-67
2023/03/02 04:08:10;;;;;;;26.53;17.00;;;1.50;99.90;;;;;;5102939;28;20204;-67
2023/03/02 04:10:38;;;;;;;25.03;15.40;;;1.50;99.90;;;;;;5102993;28;20224;-67
2023/03/02 04:13:05;;;;;;;23.47;15.37;;;1.50;99.90;;;;;;5101909;28;20232;-67
2023/03/02 04:15:32;;;;;;;21.20;15.20;;;1.50;99.90;;;;;;5098648;28;20208;-67
2023/03/02 04:17:59;;;;;;;24.33;15.27;;;1.50;99.90;;;;;;5098392;28;20212;-67
2023/03/02 04:20:26;;;;;;;24.73;15.47;;;1.40;99.90;;;;;;5097489;28;20291;-70
2023/03/02 04:22:56;;;;;;;24.03;15.83;;;1.40;99.90;;;;;;5097648;28;20227;-63
2023/03/02 04:25:25;;;;;;;27.87;15.63;;;1.30;99.90;;;;;;5100598;28;20232;-66
2023/03/02 04:27:53;;;;;;;25.60;15.43;;;1.30;99.90;;;;;;5100032;28;20230;-67
2023/03/02 04:30:22;;;;;;;24.07;15.43;;;1.30;99.90;;;;;;5098633;28;20224;-70
2023/03/02 04:32:49;;;;;;;26.10;15.90;;;1.30;99.90;;;;;;5101246;28;20279;-66
2023/03/02 04:35:17;;;;;;;24.87;15.73;;;1.30;99.90;;;;;;5099610;28;20254;-68
2023/03/02 04:37:45;;;;;;;25.57;16.93;;;1.30;99.90;;;;;;5099075;28;20215;-67
2023/03/02 04:40:15;;;;;;;27.00;17.23;;;1.20;99.90;;;;;;5098610;28;20219;-67
2023/03/02 04:42:43;;;;;;;27.10;16.97;;;1.20;99.90;;;;;;5101829;28;20224;-66
2023/03/02 04:45:11;;;;;;;24.57;16.17;;;1.20;99.90;;;;;;5104260;28;20204;-67
2023/03/02 04:47:38;;;;;;;25.93;15.40;;;1.20;99.90;;;;;;5105232;28;20207;-66
2023/03/02 04:50:06;;;;;;;26.47;16.27;;;1.20;99.90;;;;;;5107571;28;20224;-68
2023/03/02 04:52:32;;;;;;;26.17;16.63;;;1.20;99.90;;;;;;5109131;28;20749;-66
2023/03/02 04:54:59;;;;;;;25.90;15.57;;;1.20;99.90;;;;;;5110257;28;20215;-67
2023/03/02 04:57:27;;;;;;;29.57;19.00;;;1.20;99.90;;;;;;5111119;28;20215;-66
2023/03/02 04:59:54;;;;;;;30.17;17.30;;;1.20;99.90;;;;;;5107621;28;20205;-66
2023/03/02 05:02:20;;;;;;;29.23;17.70;;;1.20;99.90;;;;;;5107297;28;20825;-67
2023/03/02 05:04:47;;;;;;;25.77;16.80;;;1.20;99.90;;;;;;5098449;28;20208;-67
2023/03/02 05:07:14;;;;;;;32.57;18.43;;;1.20;99.90;;;;;;5094971;28;20204;-67
2023/03/02 05:09:41;;;;;;;34.53;23.10;;;1.20;99.90;;;;;;5094555;28;20234;-67
2023/03/02 05:12:07;;;;;;;28.53;19.10;;;1.20;99.90;;;;;;5094201;28;20236;-69
2023/03/02 05:14:36;;;;;;;25.43;16.03;;;1.10;99.90;;;;;;5094363;28;20216;-66
2023/03/02 05:17:02;;;;;;;26.73;17.10;;;1.10;99.90;;;;;;5094238;28;20204;-66
2023/03/02 05:19:29;;;;;;;26.97;16.93;;;1.10;99.90;;;;;;5094584;28;20210;-67
2023/03/02 05:21:56;;;;;;;25.97;15.27;;;1.10;99.90;;;;;;5093482;28;20227;-68
2023/03/02 05:24:23;;;;;;;30.00;16.73;;;1.10;99.90;;;;;;5093924;28;20208;-66
2023/03/02 05:26:50;;;;;;;24.87;15.77;;;1.10;99.90;;;;;;5094646;28;20200;-67
2023/03/02 05:29:17;;;;;;;27.03;17.67;;;1.10;99.90;;;;;;5094686;28;20672;-65
2023/03/02 05:31:46;;;;;;;31.63;17.53;;;1.10;99.90;;;;;;5094380;28;20688;-67
2023/03/02 05:34:16;;;;;;;28.27;17.97;;;1.00;99.90;;;;;;5098034;28;20491;-66
2023/03/02 05:36:44;;;;;;;34.57;17.60;;;1.00;99.90;;;;;;5112260;28;20200;-66
2023/03/02 05:39:11;;;;;;;28.40;16.70;;;0.90;99.90;;;;;;5108135;28;20208;-67
2023/03/02 05:41:38;;;;;;;26.63;16.77;;;0.90;99.90;;;;;;5106107;28;20228;-67
2023/03/02 05:44:08;;;;;;;30.47;18.30;;;1.00;99.90;;;;;;5108920;28;20585;-65
2023/03/02 05:46:35;;;;;;;26.20;16.13;;;1.00;99.90;;;;;;5108510;28;20212;-67
2023/03/02 05:49:04;;;;;;;27.43;17.03;;;1.00;99.90;;;;;;5098956;28;20200;-67
2023/03/02 05:51:30;;;;;;;24.53;16.50;;;1.00;99.90;;;;;;5096808;28;20278;-67
2023/03/02 05:53:57;;;;;;;25.03;16.87;;;0.90;99.90;;;;;;5096826;28;20277;-69
2023/03/02 05:56:24;;;;;;;26.27;17.43;;;0.90;99.90;;;;;;5096774;28;20215;-67
2023/03/02 05:58:51;;;;;;;29.30;15.70;;;0.90;99.90;;;;;;5096826;28;20201;-67
2023/03/02 06:01:18;;;;;;;23.73;15.10;;;0.90;99.90;;;;;;5097025;28;20558;-66
2023/03/02 06:03:44;;;;;;;26.20;17.00;;;0.90;99.90;;;;;;5096478;28;20282;-67
2023/03/02 06:06:13;;;;;;;25.83;15.97;;;0.90;99.90;;;;;;5096527;28;20212;-67
2023/03/02 06:08:40;;;;;;;23.53;15.10;;;0.90;99.90;;;;;;5096989;28;20641;-70
2023/03/02 06:11:08;;;;;;;23.07;15.37;;;1.00;99.90;;;;;;5097119;28;20313;-67
2023/03/02 06:13:34;;;;;;;26.77;15.83;;;1.00;99.90;;;;;;5096450;28;20281;-67
2023/03/02 06:16:01;;;;;;;26.47;15.87;;;1.00;99.90;;;;;;5096689;28;20204;-67
2023/03/02 06:18:28;;;;;;;26.20;16.93;;;0.90;99.90;;;;;;5097324;28;20740;-67
2023/03/02 06:20:55;;;;;;;29.47;16.70;;;0.70;99.90;;;;;;5097244;28;20208;-67
2023/03/02 06:23:23;;;;;;;24.43;15.73;;;0.90;99.90;;;;;;5096020;28;20224;-67
2023/03/02 06:25:50;;;;;;;26.30;16.23;;;1.00;99.90;;;;;;5096123;28;20204;-67
2023/03/02 06:28:18;;;;;;;27.43;17.17;;;1.00;99.90;;;;;;5096285;28;20204;-66
2023/03/02 06:30:47;;;;;;;27.70;18.07;;;1.10;99.90;;;;;;5095915;28;20725;-67
2023/03/02 06:33:14;;;;;;;30.00;18.93;;;1.10;99.90;;;;;;5096482;28;20220;-69
2023/03/02 06:35:41;;;;;;;29.73;18.43;;;1.20;99.90;;;;;;5096103;28;20208;-66
2023/03/02 06:38:08;;;;;;;31.53;18.70;;;1.30;99.90;;;;;;5096806;28;20655;-67
2023/03/02 06:40:36;;;;;;;32.47;20.10;;;1.40;99.90;;;;;;5096429;28;20729;-67
2023/03/02 06:43:03;;;;;;;53.60;22.27;;;1.60;99.90;;;;;;5098468;28;20223;-65
2023/03/02 06:45:32;;;;;;;48.53;24.13;;;1.60;99.90;;;;;;5098378;28;20330;-68
2023/03/02 06:47:59;;;;;;;47.00;24.10;;;1.80;99.90;;;;;;5103959;28;20224;-66
2023/03/02 06:50:26;;;;;;;40.63;23.47;;;1.90;99.90;;;;;;5110655;28;20224;-68
2023/03/02 06:52:53;;;;;;;37.53;21.70;;;2.10;99.90;;;;;;5110648;28;20714;-67
2023/03/02 06:55:20;;;;;;;34.03;19.67;;;2.50;99.90;;;;;;5108350;28;20287;-67
2023/03/02 06:57:48;;;;;;;30.23;18.40;;;3.10;99.90;;;;;;5097570;28;20675;-67
2023/03/02 07:00:16;;;;;;;27.47;17.77;;;3.60;99.90;;;;;;5097189;28;20588;-66
2023/03/02 07:02:44;;;;;;;38.43;21.50;;;3.90;99.90;;;;;;5097517;28;20228;-66
2023/03/02 07:05:11;;;;;;;41.57;23.07;;;4.20;99.90;;;;;;5099582;28;20234;-68
2023/03/02 07:07:38;;;;;;;44.97;24.90;;;4.40;99.90;;;;;;5100232;28;20580;-63
2023/03/02 07:10:06;;;;;;;37.67;22.23;;;4.50;99.90;;;;;;5099518;28;20285;-60
2023/03/02 07:12:33;;;;;;;38.83;21.40;;;4.60;99.90;;;;;;5099533;28;20599;-60
2023/03/02 07:15:01;;;;;;;32.77;20.37;;;4.70;99.90;;;;;;5098667;28;20225;-59
2023/03/02 07:17:28;;;;;;;36.90;20.67;;;4.90;99.90;;;;;;5096747;28;20672;-61
2023/03/02 07:19:54;;;;;;;37.03;19.33;;;5.10;99.90;;;;;;5094395;28;20208;-62
2023/03/02 07:22:21;;;;;;;28.73;18.43;;;5.30;99.90;;;;;;5094136;28;20364;-61
2023/03/02 07:24:48;;;;;;;33.90;19.13;;;5.60;99.90;;;;;;5093801;28;20617;-61
2023/03/02 07:27:15;;;;;;;25.53;17.30;;;5.80;99.90;;;;;;5093566;28;20208;-60
2023/03/02 07:29:42;;;;;;;26.90;17.33;;;6.10;99.90;;;;;;5095918;28;20279;-60
2023/03/02 07:32:10;;;;;;;25.53;16.50;;;6.50;99.90;;;;;;5094886;28;20228;-61
2023/03/02 07:34:37;;;;;;;25.40;16.70;;;6.90;99.90;;;;;;5094253;28;20212;-62
2023/03/02 07:37:04;;;;;;;30.13;17.67;;;7.30;99.90;;;;;;5093209;28;20226;-61
2023/03/02 07:39:32;;;;;;;33.30;17.77;;;7.60;99.90;;;;;;5093621;28;20215;-60
2023/03/02 07:41:59;;;;;;;29.40;18.37;;;7.80;99.90;;;;;;5092838;28;20231;-62
2023/03/02 07:44:27;;;;;;;26.63;18.83;;;7.70;99.90;;;;;;5093142;28;20230;-62
2023/03/02 07:46:54;;;;;;;25.13;17.83;;;7.60;99.90;;;;;;5093247;28;20590;-67
2023/03/02 07:49:22;;;;;;;28.80;19.93;;;7.40;99.90;;;;;;5092826;28;20208;-64
2023/03/02 07:51:49;;;;;;;24.10;16.97;;;7.30;99.90;;;;;;5092959;28;20307;-64
2023/03/02 07:54:15;;;;;;;30.03;17.67;;;7.10;99.90;;;;;;5093274;28;20204;-67
2023/03/02 07:56:42;;;;;;;26.47;17.07;;;7.00;99.90;;;;;;5093856;28;20230;-68
2023/03/02 07:59:09;;;;;;;27.03;16.27;;;6.80;99.90;;;;;;5093202;28;20284;-65
2023/03/02 08:01:36;;;;;;;29.33;17.40;;;6.60;99.90;;;;;;5092974;28;20231;-67
2023/03/02 08:04:03;;;;;;;27.47;17.93;;;6.40;99.90;;;;;;5092616;28;20239;-66
2023/03/02 08:06:31;;;;;;;26.67;17.43;;;6.40;99.90;;;;;;5092608;28;20204;-67
2023/03/02 08:08:59;;;;;;;25.87;17.03;;;6.40;99.90;;;;;;5092796;28;20278;-65
2023/03/02 08:11:26;;;;;;;27.53;17.37;;;6.30;99.90;;;;;;5092289;28;20731;-66
2023/03/02 08:13:52;;;;;;;25.13;16.83;;;6.30;99.90;;;;;;5092320;28;20563;-65
2023/03/02 08:16:20;;;;;;;29.50;17.87;;;6.10;99.90;;;;;;5092649;28;20569;-65
2023/03/02 08:18:47;;;;;;;24.63;15.10;;;6.00;99.90;;;;;;5092649;28;20204;-65
2023/03/02 08:21:17;;;;;;;23.50;14.87;;;6.10;99.90;;;;;;5092717;28;20208;-67
2023/03/02 08:23:46;;;;;;;21.17;14.53;;;6.10;99.90;;;;;;5093023;28;20208;-66
2023/03/02 08:26:13;;;;;;;22.40;14.30;;;6.20;99.90;;;;;;5093126;28;20209;-67
2023/03/02 08:28:40;;;;;;;22.07;14.83;;;6.10;99.90;;;;;;5093163;28;20226;-67
2023/03/02 08:31:08;;;;;;;21.70;13.67;;;6.10;99.90;;;;;;5093581;28;20224;-64
2023/03/02 08:33:36;;;;;;;20.73;14.37;;;6.10;99.90;;;;;;5092610;28;20256;-66
2023/03/02 08:36:06;;;;;;;22.87;15.07;;;6.10;99.90;;;;;;5092946;28;20672;-66
2023/03/02 08:38:34;;;;;;;21.43;13.93;;;6.10;99.90;;;;;;5093363;28;20234;-67
2023/03/02 08:41:06;;;;;;;23.40;14.17;;;6.20;99.90;;;;;;5092853;28;20698;-67
2023/03/02 08:43:33;;;;;;;19.33;13.93;;;6.10;99.90;;;;;;5093101;28;20695;-67
2023/03/02 08:46:00;;;;;;;22.00;14.80;;;6.10;99.90;;;;;;5092873;28;20208;-66
2023/03/02 08:48:28;;;;;;;21.37;14.70;;;6.20;99.90;;;;;;5092969;28;20207;-69
2023/03/02 08:50:56;;;;;;;21.47;14.13;;;6.30;99.90;;;;;;5093190;28;20220;-69
2023/03/02 08:53:23;;;;;;;22.77;14.30;;;6.30;99.90;;;;;;5092994;28;20616;-68
2023/03/02 08:55:51;;;;;;;25.93;13.83;;;6.30;99.90;;;;;;5092947;28;20207;-66
2023/03/02 08:58:19;;;;;;;24.27;13.60;;;6.30;99.90;;;;;;5093067;28;20200;-67
2023/03/02 09:00:46;;;;;;;19.40;13.50;;;6.40;99.90;;;;;;5092354;28;20208;-65
2023/03/02 09:03:13;;;;;;;19.90;13.80;;;6.40;99.90;;;;;;5092707;28;20633;-67
2023/03/02 09:05:39;;;;;;;21.27;13.63;;;6.30;99.90;;;;;;5092272;28;20200;-68
2023/03/02 09:08:07;;;;;;;17.73;12.60;;;6.40;99.90;;;;;;5092908;28;20204;-68
2023/03/02 09:10:34;;;;;;;19.93;13.03;;;6.50;99.90;;;;;;5092934;28;20210;-69
2023/03/02 09:13:01;;;;;;;18.03;12.43;;;6.70;99.90;;;;;;5092625;28;20602;-67
2023/03/02 09:15:29;;;;;;;19.20;12.43;;;6.80;99.90;;;;;;5092761;28;20240;-66
2023/03/02 09:17:56;;;;;;;21.50;14.63;;;7.00;99.90;;;;;;5096469;28;20212;-69
2023/03/02 09:20:23;;;;;;;20.60;13.40;;;7.10;99.90;;;;;;5100044;28;20242;-67
2023/03/02 09:22:50;;;;;;;17.40;13.20;;;7.10;99.90;;;;;;5099082;28;20226;-68
2023/03/02 09:25:17;;;;;;;19.17;12.70;;;7.20;99.90;;;;;;5098096;28;20205;-67
2023/03/02 09:27:44;;;;;;;18.57;12.80;;;7.30;99.90;;;;;;5097571;28;20273;-69
2023/03/02 09:30:13;;;;;;;20.80;13.10;;;7.50;99.90;;;;;;5097129;28;20207;-69
2023/03/02 09:32:41;;;;;;;18.47;13.33;;;7.60;99.90;;;;;;5096569;28;20696;-68
2023/03/02 09:35:09;;;;;;;19.37;12.90;;;7.70;99.90;;;;;;5095878;28;20204;-66
2023/03/02 09:37:37;;;;;;;18.00;11.97;;;7.90;99.90;;;;;;5095993;28;20644;-66
2023/03/02 09:40:13;;;;;;;18.53;12.73;;;7.90;99.90;;;;;;5095739;28;20212;-64
2023/03/02 09:43:11;;;;;;;16.80;12.07;;;8.00;99.90;;;;;;5093983;28;20220;-66
2023/03/02 09:46:14;;;;;;;18.37;13.13;;;8.00;99.90;;;;;;5094680;28;20201;-66
2023/03/02 09:48:53;;;;;;;17.70;11.80;;;8.20;99.90;;;;;;5051615;28;20659;-67
2023/03/02 09:51:31;;;;;;;16.90;11.27;;;8.40;99.90;;;;;;5094396;28;20224;-66
2023/03/02 09:54:03;;;;;;;17.67;12.23;;;8.40;99.90;;;;;;5094297;28;20204;-65
2023/03/02 09:56:32;;;;;;;20.93;11.67;;;8.50;99.90;;;;;;5094860;28;20212;-66
2023/03/02 09:59:04;;;;;;;18.00;10.93;;;8.60;99.90;;;;;;5094343;28;20204;-65
2023/03/02 10:01:38;;;;;;;17.87;11.27;;;8.80;99.90;;;;;;5094116;28;20201;-65
2023/03/02 10:04:21;;;;;;;16.70;11.13;;;9.00;99.90;;;;;;5094471;28;20259;-69
2023/03/02 10:06:50;;;;;;;15.90;11.13;;;9.00;99.90;;;;;;5094743;28;20208;-65
2023/03/02 10:09:17;;;;;;;13.67;10.47;;;9.00;99.90;;;;;;5093846;28;20575;-66
2023/03/02 10:11:55;;;;;;;15.27;11.17;;;9.00;99.90;;;;;;5093782;28;20232;-66
2023/03/02 10:14:26;;;;;;;14.87;10.43;;;9.10;99.90;;;;;;5093403;28;20296;-65
2023/03/02 10:17:06;;;;;;;18.93;11.20;;;9.20;99.90;;;;;;5093795;28;20210;-65
2023/03/02 10:19:41;;;;;;;14.93;10.67;;;9.30;99.90;;;;;;5094483;28;20192;-65
2023/03/02 10:22:15;;;;;;;15.83;10.30;;;9.50;99.90;;;;;;5094093;28;20227;-62
2023/03/02 10:24:54;;;;;;;15.83;10.77;;;9.70;99.90;;;;;;5093834;28;20231;-61
2023/03/02 10:27:26;;;;;;;15.33;10.50;;;10.00;99.90;;;;;;5093909;28;20208;-64
2023/03/02 10:29:59;;;;;;;16.83;11.93;;;10.20;99.90;;;;;;5093569;28;20208;-62
2023/03/02 10:32:30;;;;;;;13.60;10.13;;;10.40;99.90;;;;;;5093455;28;20239;-66
2023/03/02 10:35:01;;;;;;;15.90;10.27;;;10.60;99.90;;;;;;5093675;28;20267;-64
2023/03/02 10:37:30;;;;;;;13.83;10.20;;;10.60;99.90;;;;;;5093512;28;20209;-66
2023/03/02 10:39:57;;;;;;;14.17;10.93;;;10.80;99.90;;;;;;5093119;28;20253;-66
2023/03/02 10:42:28;;;;;;;14.13;10.23;;;10.80;99.90;;;;;;5092824;28;20227;-66
2023/03/02 10:44:59;;;;;;;13.73;10.17;;;10.70;99.90;;;;;;5092779;28;20208;-69
2023/03/02 10:47:27;;;;;;;15.93;10.53;;;10.70;99.90;;;;;;5093271;28;20200;-70
2023/03/02 10:49:55;;;;;;;14.17;10.60;;;10.60;99.90;;;;;;5093951;28;20207;-69
2023/03/02 10:52:25;;;;;;;16.07;10.00;;;10.70;99.90;;;;;;5093035;28;20239;-66
2023/03/02 10:55:02;;;;;;;15.00;10.40;;;10.80;99.90;;;;;;5092949;28;20212;-65
2023/03/02 10:57:35;;;;;;;13.33;10.00;;;10.80;99.90;;;;;;5092829;28;20232;-64
2023/03/02 11:00:04;;;;;;;11.70;9.40;;;10.90;99.90;;;;;;5083100;28;20208;-68
2023/03/02 11:02:36;;;;;;;21.50;15.73;;;11.00;99.90;;;;;;5092528;28;20216;-69
2023/03/02 11:05:21;;;;;;;16.73;10.27;;;11.20;99.90;;;;;;5092763;28;20216;-68
2023/03/02 11:07:54;;;;;;;14.97;9.73;;;11.50;99.90;;;;;;5092128;28;20298;-67
2023/03/02 11:10:23;;;;;;;13.93;10.20;;;11.60;99.90;;;;;;5091861;28;20295;-68
2023/03/02 11:12:53;;;;;;;14.90;9.60;;;11.70;99.90;;;;;;5091173;28;20224;-65
2023/03/02 11:15:24;;;;;;;14.67;10.53;;;11.80;99.90;;;;;;5092730;28;20300;-68
2023/03/02 11:17:56;;;;;;;14.50;10.17;;;11.90;99.90;;;;;;5092796;28;20205;-64
2023/03/02 11:20:27;;;;;;;15.60;10.10;;;12.00;99.90;;;;;;5092550;28;20215;-66
2023/03/02 11:23:02;;;;;;;14.93;10.17;;;12.00;99.90;;;;;;5092830;28;20344;-65
2023/03/02 11:25:34;;;;;;;15.70;10.40;;;11.80;99.90;;;;;;5092870;28;20286;-67
2023/03/02 11:28:08;;;;;;;17.83;10.33;;;11.70;99.90;;;;;;5093585;28;20672;-68
2023/03/02 11:30:41;;;;;;;13.50;10.20;;;11.70;99.90;;;;;;5092063;28;20295;-69
2023/03/02 11:33:16;;;;;;;15.63;9.30;;;11.70;99.90;;;;;;5092154;28;20235;-71
2023/03/02 11:35:47;;;;;;;15.63;10.13;;;11.90;99.90;;;;;;5092173;28;20275;-66
2023/03/02 11:38:23;;;;;;;12.47;9.67;;;12.20;99.90;;;;;;5092328;28;20212;-68
2023/03/02 11:40:55;;;;;;;15.70;11.37;;;12.20;99.90;;;;;;5091582;28;20210;-66
2023/03/02 11:43:22;;;;;;;14.00;10.27;;;12.10;99.90;;;;;;5091967;28;20228;-66
2023/03/02 11:46:00;;;;;;;15.10;10.77;;;12.10;99.90;;;;;;5091933;28;20216;-71
2023/03/02 11:48:30;;;;;;;15.63;10.80;;;12.20;99.90;;;;;;5092530;28;20213;-68
2023/03/02 11:50:59;;;;;;;13.67;10.43;;;12.40;99.90;;;;;;5092182;28;20208;-69
2023/03/02 11:53:33;;;;;;;13.87;9.80;;;12.40;99.90;;;;;;5092380;28;20323;-71
2023/03/02 11:55:59;;;;;;;13.97;10.77;;;12.40;99.90;;;;;;5092481;28;20212;-70
2023/03/02 11:58:29;;;;;;;16.13;10.67;;;12.40;99.90;;;;;;5092407;28;20227;-67
2023/03/02 12:00:56;;;;;;;17.73;10.30;;;12.40;99.90;;;;;;5092372;28;20744;-67
2023/03/02 12:03:37;;;;;;;15.07;10.10;;;12.40;99.90;;;;;;5092007;28;20258;-66
2023/03/02 12:06:06;;;;;;;15.57;10.80;;;12.50;99.90;;;;;;5092416;28;20199;-66
2023/03/02 12:08:39;;;;;;;14.87;10.77;;;12.70;99.90;;;;;;5092493;28;20273;-67
2023/03/02 12:11:08;;;;;;;15.37;10.77;;;12.90;99.90;;;;;;5091732;28;20303;-67
2023/03/02 12:13:37;;;;;;;14.33;10.10;;;13.10;99.90;;;;;;5091761;28;20232;-68
2023/03/02 12:16:04;;;;;;;15.07;11.30;;;13.30;99.90;;;;;;5092260;28;20590;-67
2023/03/02 12:18:47;;;;;;;13.23;9.43;;;13.50;99.90;;;;;;5092541;28;20200;-67
2023/03/02 12:21:17;;;;;;;16.03;10.30;;;13.70;99.90;;;;;;5092945;28;20204;-67
2023/03/02 12:24:02;;;;;;;13.80;10.40;;;13.90;99.90;;;;;;5092663;28;20204;-65
2023/03/02 12:26:35;;;;;;;15.97;10.47;;;14.00;99.90;;;;;;5092623;28;20299;-67
2023/03/02 12:29:06;;;;;;;14.37;9.97;;;14.20;99.80;;;;;;5092614;28;20204;-65
2023/03/02 12:31:41;;;;;;;13.33;10.37;;;14.30;99.30;;;;;;5092499;28;20211;-66
2023/03/02 12:34:26;;;;;;;16.43;9.47;;;14.30;99.00;;;;;;5092465;28;20204;-66
2023/03/02 12:36:56;;;;;;;13.97;9.57;;;14.20;98.50;;;;;;5092587;28;20208;-65
2023/03/02 12:39:39;;;;;;;15.27;10.37;;;14.00;98.60;;;;;;5092746;28;20570;-65
2023/03/02 12:42:27;;;;;;;12.87;9.60;;;13.90;98.70;;;;;;5093139;28;20236;-65
2023/03/02 12:45:02;;;;;;;17.53;12.00;;;13.90;98.70;;;;;;5092850;28;20208;-65
2023/03/02 12:47:30;;;;;;;16.77;10.63;;;13.80;99.00;;;;;;5093665;28;20219;-65